Flight Track Log - Related Links

Times and Time Zones

All times are in EDT time to prevent confusion due to time zone crossing. See the N777NC flight status page for this flight to view local times or setup timezone preferences in your user account.

Time Position Orientation Groundspeed Altitude Reporting Facility
EDT Latitude Longitude Course Direction KTS MPH feet Rate Location/Type
Sat 01:18:54 PM 33.6750 -84.3358 12° North 447 514 3,500  Level Atlanta Center
Sat 01:19:50 PM 33.7333 -84.2833 37° Northeast 281 323 5,900 2,483 Climbing Atlanta TRACON
Sat 01:20:50 PM 33.8167 -84.3000 351° North 299 344 8,300 2,152 Climbing Atlanta TRACON
Sat 01:21:00 PM 34.1126 -84.3125 North  Level FlightAware Approximate
Sat 01:22:00 PM 34.2330 -84.2915 12° North  Level FlightAware Approximate
Sat 01:22:54 PM 33.9944 -84.3169 355° North 332 382 12,500  Level Atlanta Center
Sat 01:23:00 PM 34.3521 -84.2607 12° North  Level FlightAware Approximate
Sat 01:23:54 PM 34.0944 -84.3322 353° North 339 390 13,800  Level Atlanta Center
Sat 01:24:00 PM 34.4711 -84.2299 12° North  Level FlightAware Approximate
Sat 01:24:54 PM 34.2008 -84.3100 10° North 368 423 15,700  Level Atlanta Center
Sat 01:25:54 PM 34.3094 -84.2778 14° North 393 452 17,600 1,750 Climbing Atlanta Center
Sat 01:26:54 PM 34.4244 -84.2428 14° North 400 460 19,200 1,550 Climbing Atlanta Center
Sat 01:27:54 PM 34.5392 -84.2178 10° North 416 479 20,700 1,600 Climbing Atlanta Center
Sat 01:28:54 PM 34.6561 -84.1878 12° North 422 486 22,400 1,350 Climbing Atlanta Center
Sat 01:29:54 PM 34.7583 -84.1728 North 422 486 23,400 1,050 Climbing Atlanta Center
Sat 01:30:54 PM 34.8817 -84.1503 North 428 493 24,500 1,200 Climbing Atlanta Center
Sat 01:31:54 PM 35.0047 -84.1225 10° North 438 504 25,800 1,150 Climbing Atlanta Center
Sat 01:32:54 PM 35.1300 -84.1022 North 443 510 26,800 950 Climbing Atlanta Center
Sat 01:33:54 PM 35.2614 -84.0719 11° North 462 532 27,700 950 Climbing Atlanta Center
Sat 01:34:54 PM 35.3908 -84.0389 12° North 468 539 28,700 650 Climbing Atlanta Center
Sat 01:35:54 PM 35.5222 -84.0031 13° North 468 539 29,000 150 Climbing Atlanta Center
Sat 01:36:54 PM 35.6556 -83.9672 12° North 478 550 29,000  Level Atlanta Center
Sat 01:37:54 PM 35.7892 -83.9311 12° North 483 556 29,000  Level Atlanta Center
Sat 01:38:54 PM 35.9350 -83.8822 15° North 495 570 29,000  Level Atlanta Center
Sat 01:40:48 PM 36.1622 -83.7442 26° Northeast 498 573 29,000  Level Indianapolis Center
Sat 01:41:50 PM 36.2861 -83.6678 26° Northeast 496 571 29,000  Level Indianapolis Center
Sat 01:42:51 PM 36.4100 -83.5908 27° Northeast 498 573 29,000  Level Indianapolis Center
Sat 01:43:53 PM 36.5389 -83.5003 29° Northeast 504 580 29,000  Level Indianapolis Center
Sat 01:44:54 PM 36.6619 -83.4192 28° Northeast 499 574 29,000  Level Indianapolis Center
Sat 01:45:56 PM 36.7844 -83.3350 29° Northeast 500 575 29,000  Level Indianapolis Center
Sat 01:46:57 PM 36.9114 -83.2589 26° Northeast 499 574 29,000  Level Indianapolis Center
Sat 01:47:59 PM 37.0417 -83.1872 24° Northeast 504 580 29,000  Level Indianapolis Center
Sat 01:49:00 PM 37.1897 -83.0936 27° Northeast 504 580 29,000  Level Indianapolis Center
Sat 01:50:02 PM 37.3181 -83.0214 24° Northeast 501 577 29,000  Level Indianapolis Center
Sat 01:51:03 PM 37.4442 -82.9458 25° Northeast 498 573 29,000  Level Indianapolis Center
Sat 01:52:04 PM 37.5703 -82.8653 27° Northeast 503 579 29,000  Level Indianapolis Center
Sat 01:53:06 PM 37.6986 -82.7931 24° Northeast 504 580 29,000  Level Indianapolis Center
Sat 01:54:07 PM 37.8233 -82.7136 27° Northeast 500 575 29,000  Level Indianapolis Center
Sat 01:55:08 PM 37.9456 -82.6278 29° Northeast 500 575 29,000  Level Indianapolis Center
Sat 01:56:10 PM 38.0656 -82.5367 31° Northeast 499 574 29,000 -195 Level Indianapolis Center
Sat 01:57:11 PM 38.1958 -82.4414 30° Northeast 504 580 28,600 -738 Descending Indianapolis Center
Sat 01:58:12 PM 38.3169 -82.3556 29° Northeast 499 574 27,500 -780 Descending Indianapolis Center
Sat 01:59:14 PM 38.4353 -82.2622 32° Northeast 498 573 27,000 -244 Descending Indianapolis Center
Sat 02:00:15 PM 38.5575 -82.1767 29° Northeast 499 574 27,000  Level Indianapolis Center
Sat 02:01:16 PM 38.6817 -82.0908 28° Northeast 502 578 27,000  Level Indianapolis Center
Sat 02:02:18 PM 38.8019 -81.9939 32° Northeast 505 581 27,000 -49 Level Indianapolis Center
Sat 02:03:19 PM 38.9153 -81.8867 36° Northeast 501 577 26,900 -541 Descending Indianapolis Center
Sat 02:04:20 PM 39.0333 -81.7858 34° Northeast 503 579 25,900 -934 Descending Indianapolis Center
Sat 02:05:21 PM 39.1578 -81.7133 24° Northeast 491 565 25,000 -878 Descending Indianapolis Center
Sat 02:06:23 PM 39.2811 -81.6364 26° Northeast 492 566 24,100 -1,171 Descending Indianapolis Center
Sat 02:07:24 PM 39.3819 -81.5236 41° Northeast 478 550 22,600 -1,770 Descending Indianapolis Center
Sat 02:08:25 PM 39.4808 -81.4136 41° Northeast 468 539 20,500 -1,770 Descending Indianapolis Center
Sat 02:09:26 PM 39.6017 -81.2925 38° Northeast 458 527 19,000 -732 Descending Indianapolis Center
Sat 02:10:28 PM 39.6939 -81.1908 40° Northeast 438 504 19,000 -341 Level Indianapolis Center
Sat 02:11:29 PM 39.7844 -81.0903 40° Northeast 430 495 18,300 -1,623 Descending Indianapolis Center
Sat 02:12:30 PM 39.8728 -80.9903 41° Northeast 421 484 15,700 -2,585 Descending Indianapolis Center
Sat 02:13:32 PM 39.9639 -80.8928 39° Northeast 413 475 13,000 -2,488 Descending Indianapolis Center
Sat 02:14:33 PM 40.0408 -80.7897 46° Northeast 396 456 10,600 -1,452 Descending Indianapolis Center
Sat 02:15:36 PM 40.1275 -80.6972 39° Northeast 383 441 10,000 -293 Descending Cleveland Center
Sat 02:16:36 PM 40.2006 -80.6103 42° Northeast 364 419 10,000 -550 Level Cleveland Center
Sat 02:17:36 PM 40.2714 -80.5422 36° Northeast 338 389 8,900 -1,150 Descending Cleveland Center
Sat 02:18:36 PM 40.3256 -80.4633 48° Northeast 305 351 7,700 -950 Descending Cleveland Center
Sat 02:19:36 PM 40.3692 -80.3814 55° Northeast 278 320 7,000 -700 Descending Cleveland Center

Login

Don't have an account? Register now (free) for customized features, flight alerts, and more!